Aeroporto :
LOGIN :

Iscrizione | Disclaimer

   EN    FR    IT 

 










Sommario :    VFR   VFR Marginale   IFR   IFR Intensivo   IFR Molto Intensivo
Visibilità : 
Base nubi : 
>= 8 km
>= 3000ft
5 / 8 km
1000 / 3000 ft
1500m / 5 km
500 / 1000 ft
800 / 1500m
200 / 500 ft
< 800m
< 200 ft
Simboli :   Temporali  Nebbia  Neve Forte  Precipitazioni Forti  Vento > 20 kt
SIGMETs :   Varie  Temporali  Ghiacco  Turbolenza  Onda orograficha  Ceneri Vulcaniche






- Altitudine del aeroporto : 121 ft
- Codice IATA : HUY


EGNJ - Humberside

ULTIMO METAR :
  • 280420Z AUTO 21013KT 9999 NCD 02/01 Q1011

METARs OBSOLETI :
  • 280350Z AUTO 21014KT 9999 NCD 02/00 Q1011
  • 280320Z AUTO 20013KT 9999 NCD 02/00 Q1011
  • 280250Z AUTO 21015KT 9999 NCD 02/00 Q1011
  • 280220Z AUTO 20013KT 9999 NCD 01/M00 Q1011
  • 280150Z AUTO 21012KT 9999 NCD 02/00 Q1011

TAF TAF EGNJ
Valido dal 28 a 03 ore il 28 a 12 ore UTC


280148Z 2803/2812 21008KT 9999 SCT030
BECMG 2809/2812 15015G25KT 8000 -RA BKN012
TEMPO 2809/2812 4000 RA BKN004
ATIS : +44 1652 682 020



MetMap, La meteo Aeronautica in un colpo d'occhio ! - Copyright ORBIFLY Dicembre 2007 - Disclaimer

ORBIFLY MET'MAP TEAM :

Programmazione e sviluppo : Alexandra Zaïnal
Concezione : Baudouin d'Aumeries
Aiuto per la programmazione : Marc-Olivier Méhu
Supporto tecnico e logistico : Manuel Goepfert
Aiuto per la traduzione : Arnaldo La Scala

Contatto : metmap@orbifly.com




FONTI E CREDITI :

   NOAA